sensor_id;sensor_type;location;lat;lon;timestamp;pressure;altitude;pressure_sealevel;temperature;humidity
77041;BME280;65974;42.664;23.264;2023-03-23T00:00:45;94364.00;;;4.22;86.92
77041;BME280;65974;42.664;23.264;2023-03-23T00:03:10;94356.78;;;4.19;87.25
77041;BME280;65974;42.664;23.264;2023-03-23T00:05:38;94359.41;;;4.19;86.71
77041;BME280;65974;42.664;23.264;2023-03-23T00:08:06;94350.66;;;4.15;87.17
77041;BME280;65974;42.664;23.264;2023-03-23T00:10:35;94344.81;;;4.21;86.97
77041;BME280;65974;42.664;23.264;2023-03-23T00:13:00;94350.31;;;4.16;87.07
77041;BME280;65974;42.664;23.264;2023-03-23T00:15:27;94351.94;;;4.21;87.35
77041;BME280;65974;42.664;23.264;2023-03-23T00:18:01;94345.91;;;4.20;87.03
77041;BME280;65974;42.664;23.264;2023-03-23T00:20:30;94346.50;;;4.29;86.66
77041;BME280;65974;42.664;23.264;2023-03-23T00:23:02;94346.44;;;4.26;86.24
77041;BME280;65974;42.664;23.264;2023-03-23T00:25:29;94359.75;;;4.17;86.76
77041;BME280;65974;42.664;23.264;2023-03-23T00:27:54;94355.25;;;4.18;87.22
77041;BME280;65974;42.664;23.264;2023-03-23T00:30:19;94354.66;;;4.24;86.98
77041;BME280;65974;42.664;23.264;2023-03-23T00:32:46;94356.53;;;4.24;86.89
77041;BME280;65974;42.664;23.264;2023-03-23T00:35:11;94360.28;;;4.23;86.28
77041;BME280;65974;42.664;23.264;2023-03-23T00:37:37;94368.59;;;4.25;86.27
77041;BME280;65974;42.664;23.264;2023-03-23T00:40:03;94375.41;;;4.26;86.47
77041;BME280;65974;42.664;23.264;2023-03-23T00:42:34;94372.59;;;4.19;86.57
77041;BME280;65974;42.664;23.264;2023-03-23T00:45:03;94371.41;;;4.16;86.93
77041;BME280;65974;42.664;23.264;2023-03-23T00:47:35;94379.72;;;4.18;86.64
77041;BME280;65974;42.664;23.264;2023-03-23T00:50:02;94382.19;;;4.11;86.76
77041;BME280;65974;42.664;23.264;2023-03-23T00:52:28;94366.91;;;4.17;87.13
77041;BME280;65974;42.664;23.264;2023-03-23T00:54:55;94374.13;;;4.20;86.68
77041;BME280;65974;42.664;23.264;2023-03-23T00:57:20;94376.94;;;4.27;86.33
77041;BME280;65974;42.664;23.264;2023-03-23T00:59:51;94375.94;;;4.31;87.05
77041;BME280;65974;42.664;23.264;2023-03-23T01:02:16;94381.69;;;4.37;86.95
77041;BME280;65974;42.664;23.264;2023-03-23T01:04:43;94382.66;;;4.44;86.90
77041;BME280;65974;42.664;23.264;2023-03-23T01:07:12;94377.66;;;4.55;86.66
77041;BME280;65974;42.664;23.264;2023-03-23T01:09:38;94382.22;;;4.58;86.59
77041;BME280;65974;42.664;23.264;2023-03-23T01:12:10;94378.00;;;4.53;86.22
77041;BME280;65974;42.664;23.264;2023-03-23T01:14:36;94385.22;;;4.56;86.39
77041;BME280;65974;42.664;23.264;2023-03-23T01:17:02;94380.72;;;4.57;86.38
77041;BME280;65974;42.664;23.264;2023-03-23T01:19:27;94375.84;;;4.43;86.75
77041;BME280;65974;42.664;23.264;2023-03-23T01:21:53;94387.75;;;4.37;86.66
77041;BME280;65974;42.664;23.264;2023-03-23T01:24:18;94373.13;;;4.40;86.30
77041;BME280;65974;42.664;23.264;2023-03-23T01:26:44;94376.44;;;4.37;86.51
77041;BME280;65974;42.664;23.264;2023-03-23T01:29:10;94375.69;;;4.36;86.97
77041;BME280;65974;42.664;23.264;2023-03-23T01:31:35;94370.00;;;4.34;86.68
77041;BME280;65974;42.664;23.264;2023-03-23T01:34:02;94374.22;;;4.39;86.93
77041;BME280;65974;42.664;23.264;2023-03-23T01:36:29;94379.25;;;4.44;86.63
77041;BME280;65974;42.664;23.264;2023-03-23T01:38:58;94370.50;;;4.40;86.52
77041;BME280;65974;42.664;23.264;2023-03-23T01:41:24;94371.84;;;4.34;86.48
77041;BME280;65974;42.664;23.264;2023-03-23T01:46:19;94360.53;;;4.33;86.45
77041;BME280;65974;42.664;23.264;2023-03-23T01:48:48;94367.00;;;4.36;86.49
77041;BME280;65974;42.664;23.264;2023-03-23T01:51:17;94367.09;;;4.39;86.52
77041;BME280;65974;42.664;23.264;2023-03-23T01:56:20;94359.94;;;4.40;86.52
77041;BME280;65974;42.664;23.264;2023-03-23T01:58:50;94364.38;;;4.36;86.46
77041;BME280;65974;42.664;23.264;2023-03-23T02:01:16;94356.69;;;4.31;87.00
77041;BME280;65974;42.664;23.264;2023-03-23T02:03:44;94351.63;;;4.38;86.71
77041;BME280;65974;42.664;23.264;2023-03-23T02:06:11;94352.03;;;4.40;86.44
77041;BME280;65974;42.664;23.264;2023-03-23T02:08:38;94348.63;;;4.39;86.56
77041;BME280;65974;42.664;23.264;2023-03-23T02:11:17;94351.84;;;4.33;86.48
77041;BME280;65974;42.664;23.264;2023-03-23T02:13:43;94359.50;;;4.22;86.57
77041;BME280;65974;42.664;23.264;2023-03-23T02:30:23;94365.53;;;4.23;87.16
77041;BME280;65974;42.664;23.264;2023-03-23T02:36:18;94361.03;;;4.23;87.82
77041;BME280;65974;42.664;23.264;2023-03-23T02:41:21;94360.34;;;4.26;86.85
77041;BME280;65974;42.664;23.264;2023-03-23T02:43:48;94359.19;;;4.24;86.70
77041;BME280;65974;42.664;23.264;2023-03-23T02:46:15;94355.78;;;4.23;87.60
77041;BME280;65974;42.664;23.264;2023-03-23T02:48:43;94353.66;;;4.29;87.66
77041;BME280;65974;42.664;23.264;2023-03-23T02:51:10;94355.25;;;4.33;87.78
77041;BME280;65974;42.664;23.264;2023-03-23T02:53:40;94355.19;;;4.30;88.23
77041;BME280;65974;42.664;23.264;2023-03-23T02:56:08;94359.94;;;4.40;88.23
77041;BME280;65974;42.664;23.264;2023-03-23T02:58:36;94363.59;;;4.35;87.81
77041;BME280;65974;42.664;23.264;2023-03-23T03:03:51;94373.72;;;4.33;87.31
77041;BME280;65974;42.664;23.264;2023-03-23T03:06:37;94380.09;;;4.32;87.14
77041;BME280;65974;42.664;23.264;2023-03-23T03:12:12;94387.41;;;4.23;87.72
77041;BME280;65974;42.664;23.264;2023-03-23T03:14:47;94396.41;;;4.22;87.64
77041;BME280;65974;42.664;23.264;2023-03-23T03:17:23;94391.06;;;4.19;87.24
77041;BME280;65974;42.664;23.264;2023-03-23T03:19:54;94390.44;;;4.10;87.71
77041;BME280;65974;42.664;23.264;2023-03-23T03:22:23;94403.53;;;4.06;87.75
77041;BME280;65974;42.664;23.264;2023-03-23T03:24:55;94403.84;;;4.05;88.00
77041;BME280;65974;42.664;23.264;2023-03-23T03:27:22;94400.78;;;4.03;88.00
77041;BME280;65974;42.664;23.264;2023-03-23T03:29:53;94406.38;;;4.01;88.15
77041;BME280;65974;42.664;23.264;2023-03-23T03:32:22;94406.81;;;4.03;88.04
77041;BME280;65974;42.664;23.264;2023-03-23T03:34:50;94408.59;;;3.99;88.34
77041;BME280;65974;42.664;23.264;2023-03-23T03:37:16;94413.53;;;4.01;88.58
77041;BME280;65974;42.664;23.264;2023-03-23T03:39:42;94412.50;;;4.05;88.52
77041;BME280;65974;42.664;23.264;2023-03-23T03:42:07;94409.78;;;4.02;88.36
77041;BME280;65974;42.664;23.264;2023-03-23T03:44:33;94414.22;;;3.98;88.22
77041;BME280;65974;42.664;23.264;2023-03-23T03:46:59;94413.63;;;4.04;87.67
77041;BME280;65974;42.664;23.264;2023-03-23T03:49:24;94406.53;;;3.92;88.27
77041;BME280;65974;42.664;23.264;2023-03-23T03:51:50;94411.72;;;3.89;87.75
77041;BME280;65974;42.664;23.264;2023-03-23T03:54:16;94413.81;;;3.83;87.78
77041;BME280;65974;42.664;23.264;2023-03-23T03:56:41;94402.13;;;3.69;88.09
77041;BME280;65974;42.664;23.264;2023-03-23T03:59:08;94409.16;;;3.65;88.08
77041;BME280;65974;42.664;23.264;2023-03-23T04:01:35;94406.66;;;3.56;88.54
77041;BME280;65974;42.664;23.264;2023-03-23T04:04:01;94394.78;;;3.62;88.58
77041;BME280;65974;42.664;23.264;2023-03-23T04:06:27;94399.38;;;3.65;88.35
77041;BME280;65974;42.664;23.264;2023-03-23T04:08:57;94403.31;;;3.71;88.23
77041;BME280;65974;42.664;23.264;2023-03-23T04:11:24;94401.88;;;3.74;88.04
77041;BME280;65974;42.664;23.264;2023-03-23T04:13:50;94402.47;;;3.67;88.54
77041;BME280;65974;42.664;23.264;2023-03-23T04:16:16;94395.19;;;3.76;88.27
77041;BME280;65974;42.664;23.264;2023-03-23T04:18:42;94393.66;;;3.75;88.45
77041;BME280;65974;42.664;23.264;2023-03-23T04:21:08;94406.28;;;3.70;88.27
77041;BME280;65974;42.664;23.264;2023-03-23T04:23:34;94395.63;;;3.66;88.65
77041;BME280;65974;42.664;23.264;2023-03-23T04:26:01;94397.66;;;3.57;88.53
77041;BME280;65974;42.664;23.264;2023-03-23T04:28:28;94401.44;;;3.44;88.69
77041;BME280;65974;42.664;23.264;2023-03-23T04:30:55;94398.44;;;3.46;88.55
77041;BME280;65974;42.664;23.264;2023-03-23T04:33:22;94406.91;;;3.51;88.43
77041;BME280;65974;42.664;23.264;2023-03-23T04:35:51;94401.19;;;3.49;88.15
77041;BME280;65974;42.664;23.264;2023-03-23T04:38:17;94396.06;;;3.41;88.33
77041;BME280;65974;42.664;23.264;2023-03-23T04:40:46;94397.59;;;3.42;89.01
77041;BME280;65974;42.664;23.264;2023-03-23T04:43:12;94410.22;;;3.36;88.82
77041;BME280;65974;42.664;23.264;2023-03-23T04:45:38;94402.06;;;3.41;88.73
77041;BME280;65974;42.664;23.264;2023-03-23T04:48:07;94406.69;;;3.44;88.74
77041;BME280;65974;42.664;23.264;2023-03-23T04:50:33;94412.28;;;3.43;88.33
77041;BME280;65974;42.664;23.264;2023-03-23T04:53:00;94408.69;;;3.35;88.54
77041;BME280;65974;42.664;23.264;2023-03-23T04:55:34;94421.06;;;3.35;88.64
77041;BME280;65974;42.664;23.264;2023-03-23T04:58:06;94411.41;;;3.39;88.41
77041;BME280;65974;42.664;23.264;2023-03-23T05:00:35;94419.19;;;3.35;88.12
77041;BME280;65974;42.664;23.264;2023-03-23T05:03:00;94432.38;;;3.35;88.48
77041;BME280;65974;42.664;23.264;2023-03-23T05:05:26;94429.50;;;3.40;88.14
77041;BME280;65974;42.664;23.264;2023-03-23T05:07:54;94425.25;;;3.36;88.06
77041;BME280;65974;42.664;23.264;2023-03-23T05:10:21;94428.41;;;3.41;88.16
77041;BME280;65974;42.664;23.264;2023-03-23T05:12:47;94432.25;;;3.44;88.54
77041;BME280;65974;42.664;23.264;2023-03-23T05:15:15;94428.28;;;3.50;88.28
77041;BME280;65974;42.664;23.264;2023-03-23T05:17:41;94437.81;;;3.54;88.61
77041;BME280;65974;42.664;23.264;2023-03-23T05:20:18;94446.34;;;3.63;88.58
77041;BME280;65974;42.664;23.264;2023-03-23T05:22:45;94436.78;;;3.71;88.78
77041;BME280;65974;42.664;23.264;2023-03-23T05:25:13;94440.19;;;3.71;89.20
77041;BME280;65974;42.664;23.264;2023-03-23T05:27:39;94443.47;;;3.80;88.86
77041;BME280;65974;42.664;23.264;2023-03-23T05:30:09;94439.06;;;3.84;88.85
77041;BME280;65974;42.664;23.264;2023-03-23T05:32:34;94453.09;;;3.88;88.71
77041;BME280;65974;42.664;23.264;2023-03-23T05:35:03;94444.63;;;3.95;88.67
77041;BME280;65974;42.664;23.264;2023-03-23T05:37:30;94449.47;;;3.93;88.65
77041;BME280;65974;42.664;23.264;2023-03-23T05:39:58;94446.03;;;3.92;89.11
77041;BME280;65974;42.664;23.264;2023-03-23T05:42:27;94456.53;;;4.05;88.63
77041;BME280;65974;42.664;23.264;2023-03-23T05:44:52;94466.91;;;3.98;88.62
77041;BME280;65974;42.664;23.264;2023-03-23T05:47:18;94462.84;;;4.00;88.81
77041;BME280;65974;42.664;23.264;2023-03-23T05:49:43;94460.19;;;4.00;88.92
77041;BME280;65974;42.664;23.264;2023-03-23T05:52:10;94466.41;;;4.08;88.32
77041;BME280;65974;42.664;23.264;2023-03-23T05:54:35;94469.56;;;4.13;88.44
77041;BME280;65974;42.664;23.264;2023-03-23T05:57:02;94467.63;;;4.10;88.30
77041;BME280;65974;42.664;23.264;2023-03-23T05:59:28;94469.81;;;4.08;88.40
77041;BME280;65974;42.664;23.264;2023-03-23T06:01:54;94475.19;;;4.12;88.36
77041;BME280;65974;42.664;23.264;2023-03-23T06:04:20;94468.81;;;4.13;88.52
77041;BME280;65974;42.664;23.264;2023-03-23T06:06:50;94475.31;;;4.15;88.33
77041;BME280;65974;42.664;23.264;2023-03-23T06:09:17;94476.34;;;4.26;88.27
77041;BME280;65974;42.664;23.264;2023-03-23T06:11:42;94474.66;;;4.34;88.74
77041;BME280;65974;42.664;23.264;2023-03-23T06:14:08;94471.03;;;4.54;89.10
77041;BME280;65974;42.664;23.264;2023-03-23T06:16:33;94464.50;;;4.63;88.93
77041;BME280;65974;42.664;23.264;2023-03-23T06:18:59;94479.06;;;4.73;88.43
77041;BME280;65974;42.664;23.264;2023-03-23T06:21:26;94466.56;;;5.01;89.06
77041;BME280;65974;42.664;23.264;2023-03-23T06:23:52;94468.97;;;5.06;88.62
77041;BME280;65974;42.664;23.264;2023-03-23T06:26:19;94464.19;;;5.12;88.57
77041;BME280;65974;42.664;23.264;2023-03-23T06:28:45;94468.88;;;5.18;88.35
77041;BME280;65974;42.664;23.264;2023-03-23T06:31:10;94471.63;;;5.41;88.34
77041;BME280;65974;42.664;23.264;2023-03-23T06:33:37;94462.69;;;5.45;87.61
77041;BME280;65974;42.664;23.264;2023-03-23T06:36:03;94469.75;;;5.57;86.96
77041;BME280;65974;42.664;23.264;2023-03-23T06:38:30;94470.06;;;5.71;86.85
77041;BME280;65974;42.664;23.264;2023-03-23T06:40:56;94472.59;;;5.83;85.74
77041;BME280;65974;42.664;23.264;2023-03-23T06:43:23;94466.28;;;5.88;85.20
77041;BME280;65974;42.664;23.264;2023-03-23T06:45:49;94477.28;;;5.90;85.06
77041;BME280;65974;42.664;23.264;2023-03-23T06:48:15;94480.56;;;6.02;84.22
77041;BME280;65974;42.664;23.264;2023-03-23T06:50:45;94482.09;;;6.03;84.83
77041;BME280;65974;42.664;23.264;2023-03-23T06:53:11;94476.31;;;6.17;84.79
77041;BME280;65974;42.664;23.264;2023-03-23T06:55:37;94474.44;;;6.37;83.92
77041;BME280;65974;42.664;23.264;2023-03-23T06:58:04;94480.56;;;6.41;83.64
77041;BME280;65974;42.664;23.264;2023-03-23T07:00:31;94484.03;;;6.45;83.39
77041;BME280;65974;42.664;23.264;2023-03-23T07:02:57;94485.44;;;6.58;83.53
77041;BME280;65974;42.664;23.264;2023-03-23T07:05:23;94478.66;;;6.60;82.60
77041;BME280;65974;42.664;23.264;2023-03-23T07:07:49;94487.13;;;6.69;82.57
77041;BME280;65974;42.664;23.264;2023-03-23T07:10:15;94486.75;;;6.90;81.95
77041;BME280;65974;42.664;23.264;2023-03-23T07:12:40;94492.88;;;7.17;81.37
77041;BME280;65974;42.664;23.264;2023-03-23T07:15:08;94490.28;;;7.43;80.83
77041;BME280;65974;42.664;23.264;2023-03-23T07:17:36;94491.63;;;7.56;79.71
77041;BME280;65974;42.664;23.264;2023-03-23T07:20:02;94488.63;;;7.61;78.60
77041;BME280;65974;42.664;23.264;2023-03-23T07:22:28;94495.50;;;7.62;78.70
77041;BME280;65974;42.664;23.264;2023-03-23T07:24:54;94488.47;;;7.50;78.32
77041;BME280;65974;42.664;23.264;2023-03-23T07:27:19;94494.00;;;7.38;78.84
77041;BME280;65974;42.664;23.264;2023-03-23T07:29:45;94489.97;;;7.48;78.58
77041;BME280;65974;42.664;23.264;2023-03-23T07:32:11;94495.56;;;7.69;79.06
77041;BME280;65974;42.664;23.264;2023-03-23T07:34:37;94493.53;;;7.85;78.53
77041;BME280;65974;42.664;23.264;2023-03-23T07:37:03;94493.94;;;7.87;77.47
77041;BME280;65974;42.664;23.264;2023-03-23T07:39:29;94498.06;;;7.84;77.04
77041;BME280;65974;42.664;23.264;2023-03-23T07:41:54;94498.88;;;7.89;77.61
77041;BME280;65974;42.664;23.264;2023-03-23T07:44:20;94504.44;;;8.06;77.28
77041;BME280;65974;42.664;23.264;2023-03-23T07:46:45;94503.41;;;8.14;76.16
77041;BME280;65974;42.664;23.264;2023-03-23T07:49:12;94504.47;;;8.10;76.01
77041;BME280;65974;42.664;23.264;2023-03-23T07:51:38;94508.31;;;8.12;76.07
77041;BME280;65974;42.664;23.264;2023-03-23T07:54:04;94506.16;;;8.21;76.03
77041;BME280;65974;42.664;23.264;2023-03-23T07:56:30;94503.19;;;8.56;74.84
77041;BME280;65974;42.664;23.264;2023-03-23T07:58:56;94504.44;;;8.66;74.83
77041;BME280;65974;42.664;23.264;2023-03-23T08:01:21;94507.78;;;8.96;73.76
77041;BME280;65974;42.664;23.264;2023-03-23T08:03:49;94506.44;;;9.16;72.73
77041;BME280;65974;42.664;23.264;2023-03-23T08:06:15;94515.81;;;9.03;72.86
77041;BME280;65974;42.664;23.264;2023-03-23T08:08:40;94504.91;;;9.11;72.03
77041;BME280;65974;42.664;23.264;2023-03-23T08:11:06;94509.88;;;9.20;71.77
77041;BME280;65974;42.664;23.264;2023-03-23T08:13:32;94511.09;;;9.26;71.59
77041;BME280;65974;42.664;23.264;2023-03-23T08:16:01;94508.94;;;9.42;70.04
77041;BME280;65974;42.664;23.264;2023-03-23T08:18:30;94514.19;;;9.35;71.03
77041;BME280;65974;42.664;23.264;2023-03-23T08:20:56;94502.63;;;9.57;71.27
77041;BME280;65974;42.664;23.264;2023-03-23T08:23:22;94505.44;;;9.78;68.81
77041;BME280;65974;42.664;23.264;2023-03-23T08:25:48;94506.31;;;9.96;68.75
77041;BME280;65974;42.664;23.264;2023-03-23T08:28:14;94511.69;;;10.07;68.50
77041;BME280;65974;42.664;23.264;2023-03-23T08:30:41;94509.47;;;10.16;67.27
77041;BME280;65974;42.664;23.264;2023-03-23T08:33:07;94505.41;;;10.33;67.41
77041;BME280;65974;42.664;23.264;2023-03-23T08:35:35;94505.81;;;10.38;64.82
77041;BME280;65974;42.664;23.264;2023-03-23T08:38:00;94497.44;;;10.40;64.60
77041;BME280;65974;42.664;23.264;2023-03-23T08:40:26;94504.72;;;10.57;64.69
77041;BME280;65974;42.664;23.264;2023-03-23T08:42:53;94500.25;;;10.75;63.22
77041;BME280;65974;42.664;23.264;2023-03-23T08:45:24;94504.81;;;10.74;60.34
77041;BME280;65974;42.664;23.264;2023-03-23T08:47:50;94500.69;;;10.98;61.11
77041;BME280;65974;42.664;23.264;2023-03-23T08:50:23;94507.16;;;11.04;59.89
77041;BME280;65974;42.664;23.264;2023-03-23T08:52:49;94501.84;;;11.18;61.38
77041;BME280;65974;42.664;23.264;2023-03-23T08:55:15;94501.47;;;11.16;58.27
77041;BME280;65974;42.664;23.264;2023-03-23T08:57:43;94492.69;;;11.12;56.86
77041;BME280;65974;42.664;23.264;2023-03-23T09:00:12;94496.91;;;11.13;56.78
77041;BME280;65974;42.664;23.264;2023-03-23T09:02:47;94495.41;;;11.26;56.51
77041;BME280;65974;42.664;23.264;2023-03-23T09:05:14;94501.13;;;11.39;56.95
77041;BME280;65974;42.664;23.264;2023-03-23T09:07:41;94502.66;;;11.57;55.79
77041;BME280;65974;42.664;23.264;2023-03-23T09:10:08;94499.22;;;11.53;54.84
77041;BME280;65974;42.664;23.264;2023-03-23T09:12:35;94494.25;;;11.48;55.56
77041;BME280;65974;42.664;23.264;2023-03-23T09:15:02;94496.91;;;11.59;55.22
77041;BME280;65974;42.664;23.264;2023-03-23T09:17:36;94498.06;;;11.54;55.48
77041;BME280;65974;42.664;23.264;2023-03-23T09:20:03;94491.59;;;11.52;55.35
77041;BME280;65974;42.664;23.264;2023-03-23T09:22:35;94495.41;;;11.51;54.94
77041;BME280;65974;42.664;23.264;2023-03-23T09:25:01;94498.47;;;11.49;54.52
77041;BME280;65974;42.664;23.264;2023-03-23T09:27:26;94489.28;;;11.50;54.51
77041;BME280;65974;42.664;23.264;2023-03-23T09:29:52;94486.28;;;11.41;54.74
77041;BME280;65974;42.664;23.264;2023-03-23T09:32:17;94489.28;;;11.40;54.51
77041;BME280;65974;42.664;23.264;2023-03-23T09:34:45;94483.97;;;11.43;53.79
77041;BME280;65974;42.664;23.264;2023-03-23T09:37:10;94488.16;;;11.65;54.56
77041;BME280;65974;42.664;23.264;2023-03-23T09:39:38;94477.88;;;11.92;54.22
77041;BME280;65974;42.664;23.264;2023-03-23T09:50:55;94481.06;;;12.63;51.04
77041;BME280;65974;42.664;23.264;2023-03-23T09:53:29;94485.22;;;12.75;50.19
77041;BME280;65974;42.664;23.264;2023-03-23T09:56:01;94479.16;;;12.64;50.94
77041;BME280;65974;42.664;23.264;2023-03-23T09:58:31;94478.34;;;12.74;50.70
77041;BME280;65974;42.664;23.264;2023-03-23T10:03:31;94470.09;;;13.19;49.68
77041;BME280;65974;42.664;23.264;2023-03-23T10:05:59;94472.03;;;13.12;48.57
77041;BME280;65974;42.664;23.264;2023-03-23T10:08:27;94475.19;;;12.93;49.93
77041;BME280;65974;42.664;23.264;2023-03-23T10:17:00;94468.59;;;13.15;48.92
77041;BME280;65974;42.664;23.264;2023-03-23T10:22:33;94453.50;;;13.42;48.57
77041;BME280;65974;42.664;23.264;2023-03-23T10:30:27;94450.53;;;13.74;47.87
77041;BME280;65974;42.664;23.264;2023-03-23T10:35:38;94450.03;;;13.89;47.36
77041;BME280;65974;42.664;23.264;2023-03-23T10:38:12;94458.53;;;13.81;46.44
77041;BME280;65974;42.664;23.264;2023-03-23T10:40:48;94451.81;;;14.03;46.39
77041;BME280;65974;42.664;23.264;2023-03-23T10:43:15;94460.00;;;13.85;46.53
77041;BME280;65974;42.664;23.264;2023-03-23T10:45:43;94453.53;;;13.39;46.99
77041;BME280;65974;42.664;23.264;2023-03-23T10:48:25;94451.81;;;13.59;47.48
77041;BME280;65974;42.664;23.264;2023-03-23T10:50:55;94450.69;;;13.97;47.70
77041;BME280;65974;42.664;23.264;2023-03-23T10:53:34;94449.63;;;14.28;45.98
77041;BME280;65974;42.664;23.264;2023-03-23T10:56:01;94443.22;;;14.52;46.34
77041;BME280;65974;42.664;23.264;2023-03-23T10:58:34;94441.94;;;14.34;45.50
77041;BME280;65974;42.664;23.264;2023-03-23T11:01:03;94442.88;;;14.50;45.58
77041;BME280;65974;42.664;23.264;2023-03-23T11:03:40;94438.28;;;14.51;44.51
77041;BME280;65974;42.664;23.264;2023-03-23T11:06:12;94434.47;;;14.78;44.62
77041;BME280;65974;42.664;23.264;2023-03-23T11:09:00;94439.97;;;14.68;44.50
77041;BME280;65974;42.664;23.264;2023-03-23T11:11:31;94437.41;;;14.88;44.94
77041;BME280;65974;42.664;23.264;2023-03-23T11:14:00;94438.75;;;15.03;43.45
77041;BME280;65974;42.664;23.264;2023-03-23T11:16:29;94423.81;;;15.02;43.10
77041;BME280;65974;42.664;23.264;2023-03-23T11:18:57;94426.97;;;14.97;42.52
77041;BME280;65974;42.664;23.264;2023-03-23T11:21:24;94424.00;;;14.88;42.39
77041;BME280;65974;42.664;23.264;2023-03-23T11:23:58;94420.63;;;14.84;43.39
77041;BME280;65974;42.664;23.264;2023-03-23T11:26:27;94415.91;;;14.64;44.30
77041;BME280;65974;42.664;23.264;2023-03-23T11:31:39;94406.31;;;15.20;44.16
77041;BME280;65974;42.664;23.264;2023-03-23T11:34:30;94404.28;;;15.51;42.64
77041;BME280;65974;42.664;23.264;2023-03-23T11:37:03;94403.41;;;15.58;41.37
77041;BME280;65974;42.664;23.264;2023-03-23T11:39:33;94402.09;;;15.42;41.20
77041;BME280;65974;42.664;23.264;2023-03-23T11:42:21;94400.28;;;15.36;41.85
77041;BME280;65974;42.664;23.264;2023-03-23T11:44:47;94396.97;;;15.28;42.38
77041;BME280;65974;42.664;23.264;2023-03-23T11:47:36;94392.72;;;15.31;42.81
77041;BME280;65974;42.664;23.264;2023-03-23T11:58:26;94389.38;;;15.70;41.42
77041;BME280;65974;42.664;23.264;2023-03-23T12:01:04;94386.72;;;15.89;41.61
77041;BME280;65974;42.664;23.264;2023-03-23T12:26:02;94379.84;;;16.27;40.61
77041;BME280;65974;42.664;23.264;2023-03-23T12:28:33;94376.91;;;16.42;40.43
77041;BME280;65974;42.664;23.264;2023-03-23T12:39:10;94372.38;;;16.74;39.37
77041;BME280;65974;42.664;23.264;2023-03-23T12:44:13;94359.69;;;16.75;38.83
77041;BME280;65974;42.664;23.264;2023-03-23T12:54:40;94370.53;;;15.73;40.72
77041;BME280;65974;42.664;23.264;2023-03-23T13:00:02;94359.13;;;15.46;41.52
77041;BME280;65974;42.664;23.264;2023-03-23T13:07:53;94354.66;;;15.36;42.66
77041;BME280;65974;42.664;23.264;2023-03-23T13:10:32;94350.34;;;15.42;42.16
77041;BME280;65974;42.664;23.264;2023-03-23T13:12:58;94347.13;;;15.27;41.98
77041;BME280;65974;42.664;23.264;2023-03-23T13:16:23;94341.78;;;15.27;41.53
77041;BME280;65974;42.664;23.264;2023-03-23T13:19:16;94334.78;;;15.10;41.26
77041;BME280;65974;42.664;23.264;2023-03-23T13:21:23;94338.38;;;14.77;42.48
77041;BME280;65974;42.664;23.264;2023-03-23T13:24:04;94328.69;;;14.83;42.64
77041;BME280;65974;42.664;23.264;2023-03-23T13:26:31;94329.34;;;14.91;42.22
77041;BME280;65974;42.664;23.264;2023-03-23T13:29:05;94332.44;;;14.89;42.77
77041;BME280;65974;42.664;23.264;2023-03-23T13:31:36;94329.53;;;15.03;41.50
77041;BME280;65974;42.664;23.264;2023-03-23T13:36:39;94339.97;;;15.67;40.80
77041;BME280;65974;42.664;23.264;2023-03-23T13:39:18;94331.75;;;15.74;40.40
77041;BME280;65974;42.664;23.264;2023-03-23T13:41:58;94340.47;;;15.82;39.56
77041;BME280;65974;42.664;23.264;2023-03-23T13:44:27;94331.53;;;15.45;40.16
77041;BME280;65974;42.664;23.264;2023-03-23T13:47:27;94321.56;;;15.46;41.24
77041;BME280;65974;42.664;23.264;2023-03-23T13:52:47;94322.06;;;15.37;41.38
77041;BME280;65974;42.664;23.264;2023-03-23T14:10:48;94309.41;;;14.92;42.73
77041;BME280;65974;42.664;23.264;2023-03-23T14:13:19;94305.75;;;14.82;42.89
77041;BME280;65974;42.664;23.264;2023-03-23T14:15:59;94312.16;;;14.88;42.76
77041;BME280;65974;42.664;23.264;2023-03-23T14:18:30;94300.38;;;14.82;42.82
77041;BME280;65974;42.664;23.264;2023-03-23T14:20:57;94296.69;;;14.72;43.39
77041;BME280;65974;42.664;23.264;2023-03-23T14:23:23;94292.25;;;14.62;42.62
77041;BME280;65974;42.664;23.264;2023-03-23T14:25:59;94296.50;;;14.60;42.59
77041;BME280;65974;42.664;23.264;2023-03-23T14:28:31;94292.34;;;14.55;42.71
77041;BME280;65974;42.664;23.264;2023-03-23T14:30:59;94301.19;;;14.52;44.03
77041;BME280;65974;42.664;23.264;2023-03-23T14:33:25;94293.88;;;14.56;44.05
77041;BME280;65974;42.664;23.264;2023-03-23T14:35:53;94289.97;;;14.61;44.22
77041;BME280;65974;42.664;23.264;2023-03-23T14:38:21;94296.91;;;14.58;44.26
77041;BME280;65974;42.664;23.264;2023-03-23T14:40:50;94301.09;;;14.59;43.78
77041;BME280;65974;42.664;23.264;2023-03-23T14:43:18;94301.59;;;14.51;43.80
77041;BME280;65974;42.664;23.264;2023-03-23T14:45:49;94300.75;;;14.57;43.20
77041;BME280;65974;42.664;23.264;2023-03-23T14:48:16;94304.63;;;14.53;43.36
77041;BME280;65974;42.664;23.264;2023-03-23T14:51:01;94300.47;;;14.48;44.04
77041;BME280;65974;42.664;23.264;2023-03-23T14:53:37;94306.53;;;14.52;43.92
77041;BME280;65974;42.664;23.264;2023-03-23T14:56:12;94299.25;;;14.56;44.27
77041;BME280;65974;42.664;23.264;2023-03-23T14:58:38;94295.78;;;14.56;44.71
77041;BME280;65974;42.664;23.264;2023-03-23T15:01:16;94293.16;;;14.52;44.56
77041;BME280;65974;42.664;23.264;2023-03-23T15:04:02;94294.78;;;14.46;44.38
77041;BME280;65974;42.664;23.264;2023-03-23T15:06:34;94287.78;;;14.52;44.51
77041;BME280;65974;42.664;23.264;2023-03-23T15:09:04;94286.28;;;14.51;44.19
77041;BME280;65974;42.664;23.264;2023-03-23T15:11:35;94275.22;;;14.49;44.68
77041;BME280;65974;42.664;23.264;2023-03-23T15:14:57;94281.03;;;14.44;44.49
77041;BME280;65974;42.664;23.264;2023-03-23T15:16:58;94277.34;;;14.35;45.35
77041;BME280;65974;42.664;23.264;2023-03-23T15:19:25;94281.22;;;14.30;45.32
77041;BME280;65974;42.664;23.264;2023-03-23T15:21:54;94276.63;;;14.31;45.35
77041;BME280;65974;42.664;23.264;2023-03-23T15:24:40;94275.50;;;14.28;45.02